sensor_id;sensor_type;location;lat;lon;timestamp;P1;durP1;ratioP1;P2;durP2;ratioP2
14837;SDS011;7510;59.296;18.106;2022-08-19T00:00:12;41.10;;;21.83;;
14837;SDS011;7510;59.296;18.106;2022-08-19T00:02:39;33.83;;;21.67;;
14837;SDS011;7510;59.296;18.106;2022-08-19T00:05:05;37.53;;;23.48;;
14837;SDS011;7510;59.296;18.106;2022-08-19T00:07:30;32.33;;;21.60;;
14837;SDS011;7510;59.296;18.106;2022-08-19T00:09:55;37.17;;;23.15;;
14837;SDS011;7510;59.296;18.106;2022-08-19T00:12:21;33.47;;;22.08;;
14837;SDS011;7510;59.296;18.106;2022-08-19T00:14:46;38.08;;;22.33;;
14837;SDS011;7510;59.296;18.106;2022-08-19T00:17:11;42.08;;;24.95;;
14837;SDS011;7510;59.296;18.106;2022-08-19T00:19:37;31.83;;;21.70;;
14837;SDS011;7510;59.296;18.106;2022-08-19T00:22:03;37.53;;;23.40;;
14837;SDS011;7510;59.296;18.106;2022-08-19T00:24:28;41.97;;;22.67;;
14837;SDS011;7510;59.296;18.106;2022-08-19T00:26:53;37.10;;;22.10;;
14837;SDS011;7510;59.296;18.106;2022-08-19T00:29:20;38.72;;;24.17;;
14837;SDS011;7510;59.296;18.106;2022-08-19T00:31:46;36.10;;;22.55;;
14837;SDS011;7510;59.296;18.106;2022-08-19T00:34:12;30.40;;;19.85;;
14837;SDS011;7510;59.296;18.106;2022-08-19T00:36:38;28.17;;;21.45;;
14837;SDS011;7510;59.296;18.106;2022-08-19T00:39:04;30.80;;;22.33;;
14837;SDS011;7510;59.296;18.106;2022-08-19T00:41:29;33.15;;;21.60;;
14837;SDS011;7510;59.296;18.106;2022-08-19T00:46:26;34.88;;;22.13;;
14837;SDS011;7510;59.296;18.106;2022-08-19T00:48:51;26.55;;;20.58;;
14837;SDS011;7510;59.296;18.106;2022-08-19T00:51:16;30.00;;;20.73;;
14837;SDS011;7510;59.296;18.106;2022-08-19T00:53:42;28.27;;;20.90;;
14837;SDS011;7510;59.296;18.106;2022-08-19T00:56:08;29.58;;;21.02;;
14837;SDS011;7510;59.296;18.106;2022-08-19T00:58:34;32.15;;;22.25;;
14837;SDS011;7510;59.296;18.106;2022-08-19T01:01:00;35.65;;;22.60;;
14837;SDS011;7510;59.296;18.106;2022-08-19T01:03:25;31.80;;;22.70;;
14837;SDS011;7510;59.296;18.106;2022-08-19T01:05:51;38.33;;;23.63;;
14837;SDS011;7510;59.296;18.106;2022-08-19T01:08:17;34.80;;;23.20;;
14837;SDS011;7510;59.296;18.106;2022-08-19T01:10:43;34.75;;;23.15;;
14837;SDS011;7510;59.296;18.106;2022-08-19T01:13:13;32.53;;;22.23;;
14837;SDS011;7510;59.296;18.106;2022-08-19T01:15:40;33.90;;;22.25;;
14837;SDS011;7510;59.296;18.106;2022-08-19T01:18:08;34.80;;;23.33;;
14837;SDS011;7510;59.296;18.106;2022-08-19T01:20:34;36.85;;;23.25;;
14837;SDS011;7510;59.296;18.106;2022-08-19T01:22:59;41.20;;;25.17;;
14837;SDS011;7510;59.296;18.106;2022-08-19T01:25:26;34.28;;;23.27;;
14837;SDS011;7510;59.296;18.106;2022-08-19T01:27:53;33.25;;;25.13;;
14837;SDS011;7510;59.296;18.106;2022-08-19T01:30:26;38.85;;;24.25;;
14837;SDS011;7510;59.296;18.106;2022-08-19T01:32:52;35.80;;;23.67;;
14837;SDS011;7510;59.296;18.106;2022-08-19T01:35:18;35.45;;;23.20;;
14837;SDS011;7510;59.296;18.106;2022-08-19T01:40:09;32.78;;;24.30;;
14837;SDS011;7510;59.296;18.106;2022-08-19T01:42:34;37.47;;;25.15;;
14837;SDS011;7510;59.296;18.106;2022-08-19T01:45:00;31.77;;;24.27;;
14837;SDS011;7510;59.296;18.106;2022-08-19T01:47:25;35.55;;;26.08;;
14837;SDS011;7510;59.296;18.106;2022-08-19T01:49:50;37.45;;;25.45;;
14837;SDS011;7510;59.296;18.106;2022-08-19T01:52:15;41.80;;;26.60;;
14837;SDS011;7510;59.296;18.106;2022-08-19T01:54:40;34.72;;;25.45;;
14837;SDS011;7510;59.296;18.106;2022-08-19T01:57:10;36.40;;;24.73;;
14837;SDS011;7510;59.296;18.106;2022-08-19T01:59:36;35.03;;;25.35;;
14837;SDS011;7510;59.296;18.106;2022-08-19T02:02:02;33.85;;;25.17;;
14837;SDS011;7510;59.296;18.106;2022-08-19T02:04:29;33.05;;;24.35;;
14837;SDS011;7510;59.296;18.106;2022-08-19T02:06:54;36.20;;;25.25;;
14837;SDS011;7510;59.296;18.106;2022-08-19T02:09:19;39.83;;;26.73;;
14837;SDS011;7510;59.296;18.106;2022-08-19T02:11:44;37.60;;;26.08;;
14837;SDS011;7510;59.296;18.106;2022-08-19T02:14:10;36.08;;;25.73;;
14837;SDS011;7510;59.296;18.106;2022-08-19T02:16:35;33.67;;;25.63;;
14837;SDS011;7510;59.296;18.106;2022-08-19T02:19:00;40.17;;;27.90;;
14837;SDS011;7510;59.296;18.106;2022-08-19T02:21:26;35.50;;;25.38;;
14837;SDS011;7510;59.296;18.106;2022-08-19T02:23:51;31.67;;;25.88;;
14837;SDS011;7510;59.296;18.106;2022-08-19T02:26:17;30.50;;;23.50;;
14837;SDS011;7510;59.296;18.106;2022-08-19T02:28:43;30.88;;;23.55;;
14837;SDS011;7510;59.296;18.106;2022-08-19T02:31:09;32.88;;;25.27;;
14837;SDS011;7510;59.296;18.106;2022-08-19T02:33:35;36.30;;;25.08;;
14837;SDS011;7510;59.296;18.106;2022-08-19T02:36:02;34.70;;;23.88;;
14837;SDS011;7510;59.296;18.106;2022-08-19T02:38:28;33.85;;;24.25;;
14837;SDS011;7510;59.296;18.106;2022-08-19T02:40:54;41.88;;;28.23;;
14837;SDS011;7510;59.296;18.106;2022-08-19T02:43:20;37.42;;;26.88;;
14837;SDS011;7510;59.296;18.106;2022-08-19T02:45:46;34.00;;;25.42;;
14837;SDS011;7510;59.296;18.106;2022-08-19T02:48:13;34.22;;;26.40;;
14837;SDS011;7510;59.296;18.106;2022-08-19T02:50:39;38.88;;;26.73;;
14837;SDS011;7510;59.296;18.106;2022-08-19T02:53:05;35.17;;;26.05;;
14837;SDS011;7510;59.296;18.106;2022-08-19T02:55:31;38.47;;;25.85;;
14837;SDS011;7510;59.296;18.106;2022-08-19T02:57:56;55.20;;;28.70;;
14837;SDS011;7510;59.296;18.106;2022-08-19T03:00:22;41.28;;;28.02;;
14837;SDS011;7510;59.296;18.106;2022-08-19T03:02:49;37.53;;;25.63;;
14837;SDS011;7510;59.296;18.106;2022-08-19T03:05:14;39.25;;;27.48;;
14837;SDS011;7510;59.296;18.106;2022-08-19T03:07:39;39.63;;;26.00;;
14837;SDS011;7510;59.296;18.106;2022-08-19T03:10:05;35.30;;;24.90;;
14837;SDS011;7510;59.296;18.106;2022-08-19T03:12:30;36.95;;;25.75;;
14837;SDS011;7510;59.296;18.106;2022-08-19T03:14:55;38.95;;;27.48;;
14837;SDS011;7510;59.296;18.106;2022-08-19T03:17:21;38.05;;;26.08;;
14837;SDS011;7510;59.296;18.106;2022-08-19T03:19:46;34.40;;;24.70;;
14837;SDS011;7510;59.296;18.106;2022-08-19T03:22:11;39.33;;;26.48;;
14837;SDS011;7510;59.296;18.106;2022-08-19T03:24:37;34.47;;;25.38;;
14837;SDS011;7510;59.296;18.106;2022-08-19T03:27:02;36.92;;;25.35;;
14837;SDS011;7510;59.296;18.106;2022-08-19T03:29:30;33.83;;;25.10;;
14837;SDS011;7510;59.296;18.106;2022-08-19T03:31:56;34.90;;;25.90;;
14837;SDS011;7510;59.296;18.106;2022-08-19T03:34:23;35.75;;;24.50;;
14837;SDS011;7510;59.296;18.106;2022-08-19T03:36:55;36.53;;;26.25;;
14837;SDS011;7510;59.296;18.106;2022-08-19T03:39:21;36.05;;;26.92;;
14837;SDS011;7510;59.296;18.106;2022-08-19T03:41:47;35.45;;;25.10;;
14837;SDS011;7510;59.296;18.106;2022-08-19T03:44:13;46.60;;;26.80;;
14837;SDS011;7510;59.296;18.106;2022-08-19T03:46:39;42.50;;;27.52;;
14837;SDS011;7510;59.296;18.106;2022-08-19T03:49:04;38.15;;;26.27;;
14837;SDS011;7510;59.296;18.106;2022-08-19T03:51:34;38.65;;;25.52;;
14837;SDS011;7510;59.296;18.106;2022-08-19T03:54:00;44.38;;;27.05;;
14837;SDS011;7510;59.296;18.106;2022-08-19T03:56:26;40.30;;;24.73;;
14837;SDS011;7510;59.296;18.106;2022-08-19T03:58:52;36.33;;;25.15;;
14837;SDS011;7510;59.296;18.106;2022-08-19T04:01:21;44.15;;;25.63;;
14837;SDS011;7510;59.296;18.106;2022-08-19T04:03:47;48.10;;;25.40;;
14837;SDS011;7510;59.296;18.106;2022-08-19T04:06:14;41.47;;;25.63;;
14837;SDS011;7510;59.296;18.106;2022-08-19T04:08:40;80.93;;;30.45;;
14837;SDS011;7510;59.296;18.106;2022-08-19T04:11:06;44.05;;;26.98;;
14837;SDS011;7510;59.296;18.106;2022-08-19T04:13:32;36.53;;;24.98;;
14837;SDS011;7510;59.296;18.106;2022-08-19T04:15:57;42.97;;;25.15;;
14837;SDS011;7510;59.296;18.106;2022-08-19T04:18:23;38.97;;;26.33;;
14837;SDS011;7510;59.296;18.106;2022-08-19T04:20:48;34.30;;;24.50;;
14837;SDS011;7510;59.296;18.106;2022-08-19T04:23:14;48.05;;;25.63;;
14837;SDS011;7510;59.296;18.106;2022-08-19T04:25:41;51.83;;;25.88;;
14837;SDS011;7510;59.296;18.106;2022-08-19T04:28:06;129.30;;;31.15;;
14837;SDS011;7510;59.296;18.106;2022-08-19T04:30:36;53.90;;;27.35;;
14837;SDS011;7510;59.296;18.106;2022-08-19T04:33:02;97.60;;;30.30;;
14837;SDS011;7510;59.296;18.106;2022-08-19T04:35:33;66.18;;;29.35;;
14837;SDS011;7510;59.296;18.106;2022-08-19T04:37:59;40.83;;;27.73;;
14837;SDS011;7510;59.296;18.106;2022-08-19T04:40:24;67.85;;;25.17;;
14837;SDS011;7510;59.296;18.106;2022-08-19T04:43:08;36.85;;;24.55;;
14837;SDS011;7510;59.296;18.106;2022-08-19T04:45:35;31.08;;;22.63;;
14837;SDS011;7510;59.296;18.106;2022-08-19T04:48:01;32.28;;;22.40;;
14837;SDS011;7510;59.296;18.106;2022-08-19T04:50:26;32.50;;;21.45;;
14837;SDS011;7510;59.296;18.106;2022-08-19T04:52:51;40.80;;;23.10;;
14837;SDS011;7510;59.296;18.106;2022-08-19T04:55:17;36.22;;;22.60;;
14837;SDS011;7510;59.296;18.106;2022-08-19T04:57:43;25.63;;;21.55;;
14837;SDS011;7510;59.296;18.106;2022-08-19T05:00:09;31.23;;;20.95;;
14837;SDS011;7510;59.296;18.106;2022-08-19T05:02:35;32.42;;;22.23;;
14837;SDS011;7510;59.296;18.106;2022-08-19T05:05:00;28.67;;;20.50;;
14837;SDS011;7510;59.296;18.106;2022-08-19T05:07:25;25.10;;;19.17;;
14837;SDS011;7510;59.296;18.106;2022-08-19T05:09:51;31.92;;;22.67;;
14837;SDS011;7510;59.296;18.106;2022-08-19T05:12:16;30.90;;;21.25;;
14837;SDS011;7510;59.296;18.106;2022-08-19T05:14:42;25.60;;;19.08;;
14837;SDS011;7510;59.296;18.106;2022-08-19T05:17:08;26.67;;;20.42;;
14837;SDS011;7510;59.296;18.106;2022-08-19T05:19:33;28.33;;;20.40;;
14837;SDS011;7510;59.296;18.106;2022-08-19T05:22:17;24.85;;;19.58;;
14837;SDS011;7510;59.296;18.106;2022-08-19T05:24:57;24.77;;;17.92;;
14837;SDS011;7510;59.296;18.106;2022-08-19T05:27:23;25.05;;;18.60;;
14837;SDS011;7510;59.296;18.106;2022-08-19T05:29:48;20.27;;;17.63;;
14837;SDS011;7510;59.296;18.106;2022-08-19T05:32:13;19.25;;;15.20;;
14837;SDS011;7510;59.296;18.106;2022-08-19T05:34:39;17.20;;;14.57;;
14837;SDS011;7510;59.296;18.106;2022-08-19T05:37:04;18.50;;;13.80;;
14837;SDS011;7510;59.296;18.106;2022-08-19T05:39:31;16.40;;;13.23;;
14837;SDS011;7510;59.296;18.106;2022-08-19T05:42:00;14.13;;;12.27;;
14837;SDS011;7510;59.296;18.106;2022-08-19T05:44:28;14.82;;;12.52;;
14837;SDS011;7510;59.296;18.106;2022-08-19T05:46:57;14.48;;;12.63;;
14837;SDS011;7510;59.296;18.106;2022-08-19T05:49:23;12.15;;;10.52;;
14837;SDS011;7510;59.296;18.106;2022-08-19T05:51:48;14.82;;;11.77;;
14837;SDS011;7510;59.296;18.106;2022-08-19T05:54:14;12.93;;;11.55;;
14837;SDS011;7510;59.296;18.106;2022-08-19T05:56:40;11.15;;;10.02;;
14837;SDS011;7510;59.296;18.106;2022-08-19T05:59:06;16.38;;;10.57;;
14837;SDS011;7510;59.296;18.106;2022-08-19T06:01:34;12.18;;;10.32;;
14837;SDS011;7510;59.296;18.106;2022-08-19T06:03:59;11.15;;;10.10;;
14837;SDS011;7510;59.296;18.106;2022-08-19T06:06:25;14.85;;;10.35;;
14837;SDS011;7510;59.296;18.106;2022-08-19T06:08:50;11.73;;;10.50;;
14837;SDS011;7510;59.296;18.106;2022-08-19T06:11:31;9.95;;;8.98;;
14837;SDS011;7510;59.296;18.106;2022-08-19T06:14:01;14.75;;;9.73;;
14837;SDS011;7510;59.296;18.106;2022-08-19T06:16:27;10.25;;;9.35;;
14837;SDS011;7510;59.296;18.106;2022-08-19T06:18:53;12.20;;;9.48;;
14837;SDS011;7510;59.296;18.106;2022-08-19T06:21:23;11.57;;;9.48;;
14837;SDS011;7510;59.296;18.106;2022-08-19T06:23:49;10.82;;;8.98;;
14837;SDS011;7510;59.296;18.106;2022-08-19T06:26:16;9.98;;;8.30;;
14837;SDS011;7510;59.296;18.106;2022-08-19T06:28:41;11.85;;;9.57;;
14837;SDS011;7510;59.296;18.106;2022-08-19T06:31:10;9.70;;;8.70;;
14837;SDS011;7510;59.296;18.106;2022-08-19T06:33:35;9.63;;;7.90;;
14837;SDS011;7510;59.296;18.106;2022-08-19T06:36:01;7.82;;;7.18;;
14837;SDS011;7510;59.296;18.106;2022-08-19T06:38:26;10.45;;;7.30;;
14837;SDS011;7510;59.296;18.106;2022-08-19T06:40:59;9.02;;;7.65;;
14837;SDS011;7510;59.296;18.106;2022-08-19T06:43:24;11.80;;;7.30;;
14837;SDS011;7510;59.296;18.106;2022-08-19T06:45:50;8.25;;;7.00;;
14837;SDS011;7510;59.296;18.106;2022-08-19T06:48:16;8.85;;;7.30;;
14837;SDS011;7510;59.296;18.106;2022-08-19T06:50:42;9.55;;;6.57;;
14837;SDS011;7510;59.296;18.106;2022-08-19T06:53:10;8.85;;;7.07;;
14837;SDS011;7510;59.296;18.106;2022-08-19T06:55:35;8.00;;;6.15;;
14837;SDS011;7510;59.296;18.106;2022-08-19T06:58:02;13.38;;;6.97;;
14837;SDS011;7510;59.296;18.106;2022-08-19T07:00:28;8.63;;;6.68;;
14837;SDS011;7510;59.296;18.106;2022-08-19T07:02:53;10.53;;;6.90;;
14837;SDS011;7510;59.296;18.106;2022-08-19T07:05:19;11.13;;;6.78;;
14837;SDS011;7510;59.296;18.106;2022-08-19T07:07:44;10.67;;;6.50;;
14837;SDS011;7510;59.296;18.106;2022-08-19T07:10:09;9.63;;;6.57;;
14837;SDS011;7510;59.296;18.106;2022-08-19T07:12:34;9.45;;;5.90;;
14837;SDS011;7510;59.296;18.106;2022-08-19T07:15:00;9.93;;;6.60;;
14837;SDS011;7510;59.296;18.106;2022-08-19T07:17:25;7.10;;;6.40;;
14837;SDS011;7510;59.296;18.106;2022-08-19T07:19:51;8.27;;;6.60;;
14837;SDS011;7510;59.296;18.106;2022-08-19T07:22:16;10.80;;;6.82;;
14837;SDS011;7510;59.296;18.106;2022-08-19T07:24:43;14.20;;;7.00;;
14837;SDS011;7510;59.296;18.106;2022-08-19T07:27:08;11.68;;;5.68;;
14837;SDS011;7510;59.296;18.106;2022-08-19T07:29:35;10.40;;;5.38;;
14837;SDS011;7510;59.296;18.106;2022-08-19T07:32:00;7.03;;;5.45;;
14837;SDS011;7510;59.296;18.106;2022-08-19T07:34:27;9.88;;;6.18;;
14837;SDS011;7510;59.296;18.106;2022-08-19T07:36:52;7.53;;;6.10;;
14837;SDS011;7510;59.296;18.106;2022-08-19T07:39:19;8.15;;;5.90;;
14837;SDS011;7510;59.296;18.106;2022-08-19T07:41:46;8.30;;;5.40;;
14837;SDS011;7510;59.296;18.106;2022-08-19T07:44:12;9.23;;;5.45;;
14837;SDS011;7510;59.296;18.106;2022-08-19T07:46:38;8.50;;;5.55;;
14837;SDS011;7510;59.296;18.106;2022-08-19T07:49:05;9.30;;;5.90;;
14837;SDS011;7510;59.296;18.106;2022-08-19T07:51:30;7.43;;;5.60;;
14837;SDS011;7510;59.296;18.106;2022-08-19T07:53:55;8.60;;;5.13;;
14837;SDS011;7510;59.296;18.106;2022-08-19T07:56:21;5.97;;;5.05;;
14837;SDS011;7510;59.296;18.106;2022-08-19T07:58:48;9.23;;;5.55;;
14837;SDS011;7510;59.296;18.106;2022-08-19T08:01:16;8.10;;;5.53;;
14837;SDS011;7510;59.296;18.106;2022-08-19T08:03:41;15.00;;;5.63;;
14837;SDS011;7510;59.296;18.106;2022-08-19T08:06:25;8.50;;;4.85;;
14837;SDS011;7510;59.296;18.106;2022-08-19T08:09:09;8.10;;;5.65;;
14837;SDS011;7510;59.296;18.106;2022-08-19T08:11:47;9.45;;;5.28;;
14837;SDS011;7510;59.296;18.106;2022-08-19T08:14:17;8.90;;;5.63;;
14837;SDS011;7510;59.296;18.106;2022-08-19T08:16:42;7.25;;;5.13;;
14837;SDS011;7510;59.296;18.106;2022-08-19T08:19:09;5.75;;;5.22;;
14837;SDS011;7510;59.296;18.106;2022-08-19T08:21:34;7.72;;;5.47;;
14837;SDS011;7510;59.296;18.106;2022-08-19T08:23:59;8.25;;;5.32;;
14837;SDS011;7510;59.296;18.106;2022-08-19T08:26:24;6.18;;;4.55;;
14837;SDS011;7510;59.296;18.106;2022-08-19T08:28:50;8.77;;;5.47;;
14837;SDS011;7510;59.296;18.106;2022-08-19T08:31:16;9.93;;;5.60;;
14837;SDS011;7510;59.296;18.106;2022-08-19T08:33:41;7.88;;;5.40;;
14837;SDS011;7510;59.296;18.106;2022-08-19T08:36:07;11.05;;;4.85;;
14837;SDS011;7510;59.296;18.106;2022-08-19T08:38:33;7.45;;;4.80;;
14837;SDS011;7510;59.296;18.106;2022-08-19T08:41:04;9.82;;;5.25;;
14837;SDS011;7510;59.296;18.106;2022-08-19T08:43:38;30.23;;;6.47;;
14837;SDS011;7510;59.296;18.106;2022-08-19T08:51:02;7.38;;;4.90;;
14837;SDS011;7510;59.296;18.106;2022-08-19T08:53:28;7.50;;;4.97;;
14837;SDS011;7510;59.296;18.106;2022-08-19T08:55:53;8.75;;;5.25;;
14837;SDS011;7510;59.296;18.106;2022-08-19T08:58:26;9.97;;;5.33;;
14837;SDS011;7510;59.296;18.106;2022-08-19T09:00:52;5.93;;;4.78;;
14837;SDS011;7510;59.296;18.106;2022-08-19T09:05:51;11.35;;;4.97;;
14837;SDS011;7510;59.296;18.106;2022-08-19T09:08:30;10.38;;;5.03;;
14837;SDS011;7510;59.296;18.106;2022-08-19T09:10:58;6.88;;;5.30;;
14837;SDS011;7510;59.296;18.106;2022-08-19T09:15:53;12.13;;;5.55;;
14837;SDS011;7510;59.296;18.106;2022-08-19T09:18:20;9.27;;;5.53;;
14837;SDS011;7510;59.296;18.106;2022-08-19T09:20:45;9.23;;;5.38;;
14837;SDS011;7510;59.296;18.106;2022-08-19T09:23:12;8.10;;;5.10;;
14837;SDS011;7510;59.296;18.106;2022-08-19T09:25:37;10.77;;;5.72;;
14837;SDS011;7510;59.296;18.106;2022-08-19T09:28:05;9.05;;;4.97;;
14837;SDS011;7510;59.296;18.106;2022-08-19T09:30:31;6.82;;;4.70;;
14837;SDS011;7510;59.296;18.106;2022-08-19T09:32:57;8.38;;;4.82;;
14837;SDS011;7510;59.296;18.106;2022-08-19T09:35:24;7.13;;;4.80;;
14837;SDS011;7510;59.296;18.106;2022-08-19T09:37:50;11.52;;;5.20;;
14837;SDS011;7510;59.296;18.106;2022-08-19T09:40:16;7.75;;;5.20;;
14837;SDS011;7510;59.296;18.106;2022-08-19T09:42:42;7.13;;;5.13;;
14837;SDS011;7510;59.296;18.106;2022-08-19T09:45:08;10.85;;;5.00;;
14837;SDS011;7510;59.296;18.106;2022-08-19T09:47:34;7.57;;;4.68;;
14837;SDS011;7510;59.296;18.106;2022-08-19T09:50:03;9.05;;;5.10;;
14837;SDS011;7510;59.296;18.106;2022-08-19T09:52:28;6.45;;;4.65;;
14837;SDS011;7510;59.296;18.106;2022-08-19T09:54:54;9.27;;;5.50;;
14837;SDS011;7510;59.296;18.106;2022-08-19T09:57:23;5.82;;;4.97;;
14837;SDS011;7510;59.296;18.106;2022-08-19T09:59:48;10.10;;;5.47;;
14837;SDS011;7510;59.296;18.106;2022-08-19T10:02:13;8.47;;;5.00;;
14837;SDS011;7510;59.296;18.106;2022-08-19T10:04:39;8.18;;;5.20;;
14837;SDS011;7510;59.296;18.106;2022-08-19T10:07:22;6.30;;;5.07;;
14837;SDS011;7510;59.296;18.106;2022-08-19T10:09:47;8.05;;;5.18;;
14837;SDS011;7510;59.296;18.106;2022-08-19T10:12:13;11.55;;;5.28;;
14837;SDS011;7510;59.296;18.106;2022-08-19T10:14:40;8.38;;;4.72;;
14837;SDS011;7510;59.296;18.106;2022-08-19T10:17:05;10.35;;;5.57;;
14837;SDS011;7510;59.296;18.106;2022-08-19T10:19:30;12.20;;;5.57;;
14837;SDS011;7510;59.296;18.106;2022-08-19T10:22:02;7.75;;;5.22;;
14837;SDS011;7510;59.296;18.106;2022-08-19T10:24:27;10.43;;;5.53;;
14837;SDS011;7510;59.296;18.106;2022-08-19T10:26:53;10.43;;;5.57;;
14837;SDS011;7510;59.296;18.106;2022-08-19T10:29:18;7.20;;;4.90;;
14837;SDS011;7510;59.296;18.106;2022-08-19T10:31:43;8.30;;;4.90;;
14837;SDS011;7510;59.296;18.106;2022-08-19T10:34:09;8.38;;;4.75;;
14837;SDS011;7510;59.296;18.106;2022-08-19T10:36:35;6.93;;;4.73;;
14837;SDS011;7510;59.296;18.106;2022-08-19T10:39:03;6.93;;;5.50;;
14837;SDS011;7510;59.296;18.106;2022-08-19T10:41:31;7.65;;;4.97;;
14837;SDS011;7510;59.296;18.106;2022-08-19T10:43:57;6.97;;;5.03;;
14837;SDS011;7510;59.296;18.106;2022-08-19T10:46:24;9.20;;;4.80;;
14837;SDS011;7510;59.296;18.106;2022-08-19T10:48:49;10.25;;;4.88;;
14837;SDS011;7510;59.296;18.106;2022-08-19T10:51:15;9.00;;;4.78;;
14837;SDS011;7510;59.296;18.106;2022-08-19T10:53:59;7.38;;;4.40;;
14837;SDS011;7510;59.296;18.106;2022-08-19T10:56:25;9.00;;;5.07;;
14837;SDS011;7510;59.296;18.106;2022-08-19T10:59:09;11.57;;;4.85;;
14837;SDS011;7510;59.296;18.106;2022-08-19T11:01:34;5.45;;;3.95;;
14837;SDS011;7510;59.296;18.106;2022-08-19T11:04:01;8.65;;;4.57;;
14837;SDS011;7510;59.296;18.106;2022-08-19T11:06:27;7.53;;;4.95;;
14837;SDS011;7510;59.296;18.106;2022-08-19T11:08:55;10.38;;;4.82;;
14837;SDS011;7510;59.296;18.106;2022-08-19T11:11:21;7.55;;;5.15;;
14837;SDS011;7510;59.296;18.106;2022-08-19T11:13:47;8.13;;;4.45;;
14837;SDS011;7510;59.296;18.106;2022-08-19T11:16:16;7.32;;;5.07;;
14837;SDS011;7510;59.296;18.106;2022-08-19T11:18:43;8.63;;;4.95;;
14837;SDS011;7510;59.296;18.106;2022-08-19T11:21:13;9.52;;;5.22;;
14837;SDS011;7510;59.296;18.106;2022-08-19T11:23:39;6.50;;;5.13;;
14837;SDS011;7510;59.296;18.106;2022-08-19T11:26:04;8.90;;;5.22;;
14837;SDS011;7510;59.296;18.106;2022-08-19T11:28:30;8.32;;;5.22;;
14837;SDS011;7510;59.296;18.106;2022-08-19T11:30:55;7.22;;;5.47;;
14837;SDS011;7510;59.296;18.106;2022-08-19T11:33:20;8.23;;;5.03;;
14837;SDS011;7510;59.296;18.106;2022-08-19T11:35:45;8.75;;;5.03;;
14837;SDS011;7510;59.296;18.106;2022-08-19T11:38:11;8.10;;;5.07;;
14837;SDS011;7510;59.296;18.106;2022-08-19T11:40:36;11.13;;;5.50;;
14837;SDS011;7510;59.296;18.106;2022-08-19T11:43:02;7.07;;;5.53;;
14837;SDS011;7510;59.296;18.106;2022-08-19T11:45:27;9.30;;;5.40;;
14837;SDS011;7510;59.296;18.106;2022-08-19T11:47:53;10.48;;;5.68;;
14837;SDS011;7510;59.296;18.106;2022-08-19T11:50:19;7.55;;;5.10;;
14837;SDS011;7510;59.296;18.106;2022-08-19T11:52:44;14.40;;;5.63;;
14837;SDS011;7510;59.296;18.106;2022-08-19T11:55:10;6.93;;;5.10;;
14837;SDS011;7510;59.296;18.106;2022-08-19T11:57:36;7.85;;;5.05;;
14837;SDS011;7510;59.296;18.106;2022-08-19T12:00:02;7.65;;;5.00;;
14837;SDS011;7510;59.296;18.106;2022-08-19T12:02:28;8.35;;;5.13;;
14837;SDS011;7510;59.296;18.106;2022-08-19T12:04:53;12.47;;;4.13;;
14837;SDS011;7510;59.296;18.106;2022-08-19T12:07:19;7.03;;;4.17;;
14837;SDS011;7510;59.296;18.106;2022-08-19T12:09:44;7.18;;;4.75;;
14837;SDS011;7510;59.296;18.106;2022-08-19T12:12:09;7.18;;;5.18;;
14837;SDS011;7510;59.296;18.106;2022-08-19T12:14:34;8.65;;;5.10;;
14837;SDS011;7510;59.296;18.106;2022-08-19T12:17:00;10.40;;;5.25;;
14837;SDS011;7510;59.296;18.106;2022-08-19T12:19:27;8.63;;;4.40;;
14837;SDS011;7510;59.296;18.106;2022-08-19T12:21:53;5.97;;;4.03;;
14837;SDS011;7510;59.296;18.106;2022-08-19T12:24:24;8.13;;;4.18;;
14837;SDS011;7510;59.296;18.106;2022-08-19T12:26:50;7.70;;;4.40;;
14837;SDS011;7510;59.296;18.106;2022-08-19T12:29:16;7.90;;;4.70;;
14837;SDS011;7510;59.296;18.106;2022-08-19T12:31:41;10.32;;;4.93;;
14837;SDS011;7510;59.296;18.106;2022-08-19T12:34:06;8.18;;;4.82;;
14837;SDS011;7510;59.296;18.106;2022-08-19T12:36:32;8.27;;;5.20;;
14837;SDS011;7510;59.296;18.106;2022-08-19T12:38:58;6.30;;;4.95;;
14837;SDS011;7510;59.296;18.106;2022-08-19T12:41:24;8.65;;;4.55;;
14837;SDS011;7510;59.296;18.106;2022-08-19T12:43:50;7.07;;;4.95;;
14837;SDS011;7510;59.296;18.106;2022-08-19T12:46:15;8.00;;;4.63;;
14837;SDS011;7510;59.296;18.106;2022-08-19T12:48:40;9.30;;;4.55;;
14837;SDS011;7510;59.296;18.106;2022-08-19T12:51:10;8.52;;;4.90;;
14837;SDS011;7510;59.296;18.106;2022-08-19T12:53:37;7.45;;;4.80;;
14837;SDS011;7510;59.296;18.106;2022-08-19T12:56:02;6.63;;;4.20;;
14837;SDS011;7510;59.296;18.106;2022-08-19T12:58:28;10.00;;;4.65;;
14837;SDS011;7510;59.296;18.106;2022-08-19T13:01:27;11.13;;;5.00;;
14837;SDS011;7510;59.296;18.106;2022-08-19T13:03:45;6.63;;;4.53;;
14837;SDS011;7510;59.296;18.106;2022-08-19T13:06:11;11.68;;;4.70;;
14837;SDS011;7510;59.296;18.106;2022-08-19T13:08:37;6.93;;;4.32;;
14837;SDS011;7510;59.296;18.106;2022-08-19T13:11:13;6.95;;;4.85;;
14837;SDS011;7510;59.296;18.106;2022-08-19T13:13:40;8.85;;;5.05;;
14837;SDS011;7510;59.296;18.106;2022-08-19T13:16:06;9.48;;;4.63;;
14837;SDS011;7510;59.296;18.106;2022-08-19T13:18:32;7.35;;;5.40;;
14837;SDS011;7510;59.296;18.106;2022-08-19T13:21:01;10.38;;;4.90;;
14837;SDS011;7510;59.296;18.106;2022-08-19T13:23:28;7.63;;;5.18;;
14837;SDS011;7510;59.296;18.106;2022-08-19T13:25:57;7.35;;;5.55;;
14837;SDS011;7510;59.296;18.106;2022-08-19T13:28:22;6.65;;;4.88;;
14837;SDS011;7510;59.296;18.106;2022-08-19T13:30:48;13.02;;;5.57;;
14837;SDS011;7510;59.296;18.106;2022-08-19T13:33:31;11.88;;;5.70;;
14837;SDS011;7510;59.296;18.106;2022-08-19T13:35:58;6.60;;;5.40;;
14837;SDS011;7510;59.296;18.106;2022-08-19T13:38:25;9.50;;;5.38;;
14837;SDS011;7510;59.296;18.106;2022-08-19T13:40:51;10.45;;;5.55;;
14837;SDS011;7510;59.296;18.106;2022-08-19T13:43:18;9.93;;;5.22;;
14837;SDS011;7510;59.296;18.106;2022-08-19T13:45:44;8.70;;;5.30;;
14837;SDS011;7510;59.296;18.106;2022-08-19T13:48:10;9.40;;;5.57;;
14837;SDS011;7510;59.296;18.106;2022-08-19T13:50:38;6.07;;;5.00;;
14837;SDS011;7510;59.296;18.106;2022-08-19T13:53:05;6.88;;;5.20;;
14837;SDS011;7510;59.296;18.106;2022-08-19T13:55:30;9.55;;;4.97;;
14837;SDS011;7510;59.296;18.106;2022-08-19T13:57:57;9.07;;;4.78;;
14837;SDS011;7510;59.296;18.106;2022-08-19T14:00:23;10.57;;;5.32;;
14837;SDS011;7510;59.296;18.106;2022-08-19T14:02:50;8.60;;;5.82;;
14837;SDS011;7510;59.296;18.106;2022-08-19T14:05:16;10.70;;;5.95;;
14837;SDS011;7510;59.296;18.106;2022-08-19T14:07:41;11.10;;;5.63;;
14837;SDS011;7510;59.296;18.106;2022-08-19T14:10:07;13.98;;;5.70;;
14837;SDS011;7510;59.296;18.106;2022-08-19T14:12:33;11.38;;;5.75;;
14837;SDS011;7510;59.296;18.106;2022-08-19T14:14:58;7.68;;;5.30;;
14837;SDS011;7510;59.296;18.106;2022-08-19T14:17:24;13.15;;;5.57;;
14837;SDS011;7510;59.296;18.106;2022-08-19T14:19:49;8.68;;;5.43;;
14837;SDS011;7510;59.296;18.106;2022-08-19T14:22:15;8.25;;;6.38;;
14837;SDS011;7510;59.296;18.106;2022-08-19T14:24:40;17.53;;;6.70;;
14837;SDS011;7510;59.296;18.106;2022-08-19T14:27:06;8.68;;;5.55;;
14837;SDS011;7510;59.296;18.106;2022-08-19T14:29:31;11.70;;;5.45;;
14837;SDS011;7510;59.296;18.106;2022-08-19T14:31:56;9.30;;;6.28;;
14837;SDS011;7510;59.296;18.106;2022-08-19T14:34:24;7.80;;;5.75;;
14837;SDS011;7510;59.296;18.106;2022-08-19T14:36:49;8.43;;;5.38;;
14837;SDS011;7510;59.296;18.106;2022-08-19T14:39:15;9.32;;;6.00;;
14837;SDS011;7510;59.296;18.106;2022-08-19T14:41:40;12.43;;;6.38;;
14837;SDS011;7510;59.296;18.106;2022-08-19T14:44:06;8.68;;;5.57;;